sensor_id;sensor_type;location;lat;lon;timestamp;pressure;altitude;pressure_sealevel;temperature;humidity
31346;BME280;21711;49.708;18.568;2022-12-07T00:01:15;96857.84;;;2.91;100.00
31346;BME280;21711;49.708;18.568;2022-12-07T00:03:44;96855.84;;;2.81;100.00
31346;BME280;21711;49.708;18.568;2022-12-07T00:06:13;96861.03;;;2.93;100.00
31346;BME280;21711;49.708;18.568;2022-12-07T00:08:41;96854.91;;;2.87;100.00
31346;BME280;21711;49.708;18.568;2022-12-07T00:11:16;96857.53;;;2.87;100.00
31346;BME280;21711;49.708;18.568;2022-12-07T00:13:44;96848.00;;;2.81;100.00
31346;BME280;21711;49.708;18.568;2022-12-07T00:16:17;96854.25;;;2.80;100.00
31346;BME280;21711;49.708;18.568;2022-12-07T00:18:45;96844.72;;;2.73;100.00
31346;BME280;21711;49.708;18.568;2022-12-07T00:21:15;96844.69;;;2.85;100.00
31346;BME280;21711;49.708;18.568;2022-12-07T00:23:44;96843.75;;;2.92;100.00
31346;BME280;21711;49.708;18.568;2022-12-07T00:26:14;96846.28;;;2.86;100.00
31346;BME280;21711;49.708;18.568;2022-12-07T00:28:46;96847.66;;;2.77;100.00
31346;BME280;21711;49.708;18.568;2022-12-07T00:31:15;96849.13;;;2.85;100.00
31346;BME280;21711;49.708;18.568;2022-12-07T00:33:42;96849.81;;;2.80;100.00
31346;BME280;21711;49.708;18.568;2022-12-07T00:36:12;96851.63;;;2.80;100.00
31346;BME280;21711;49.708;18.568;2022-12-07T00:38:39;96845.38;;;2.93;100.00
31346;BME280;21711;49.708;18.568;2022-12-07T00:41:13;96842.88;;;2.86;100.00
31346;BME280;21711;49.708;18.568;2022-12-07T00:43:40;96844.56;;;2.92;100.00
31346;BME280;21711;49.708;18.568;2022-12-07T00:46:08;96841.28;;;2.85;100.00
31346;BME280;21711;49.708;18.568;2022-12-07T00:48:36;96841.84;;;2.87;100.00
31346;BME280;21711;49.708;18.568;2022-12-07T00:51:04;96843.69;;;2.74;100.00
31346;BME280;21711;49.708;18.568;2022-12-07T00:53:34;96845.88;;;2.66;100.00
31346;BME280;21711;49.708;18.568;2022-12-07T00:56:09;96838.44;;;2.86;100.00
31346;BME280;21711;49.708;18.568;2022-12-07T00:58:36;96845.00;;;2.89;100.00
31346;BME280;21711;49.708;18.568;2022-12-07T01:01:05;96849.69;;;2.87;100.00
31346;BME280;21711;49.708;18.568;2022-12-07T01:03:32;96847.75;;;2.82;100.00
31346;BME280;21711;49.708;18.568;2022-12-07T01:06:00;96845.25;;;2.87;100.00
31346;BME280;21711;49.708;18.568;2022-12-07T01:08:27;96834.69;;;2.82;100.00
31346;BME280;21711;49.708;18.568;2022-12-07T01:11:06;96848.00;;;2.81;100.00
31346;BME280;21711;49.708;18.568;2022-12-07T01:13:34;96842.78;;;2.81;100.00
31346;BME280;21711;49.708;18.568;2022-12-07T01:16:04;96836.47;;;2.65;100.00
31346;BME280;21711;49.708;18.568;2022-12-07T01:18:33;96833.84;;;2.76;100.00
31346;BME280;21711;49.708;18.568;2022-12-07T01:21:10;96838.16;;;2.71;100.00
31346;BME280;21711;49.708;18.568;2022-12-07T01:23:38;96828.38;;;2.78;100.00
31346;BME280;21711;49.708;18.568;2022-12-07T01:26:07;96837.03;;;2.67;100.00
31346;BME280;21711;49.708;18.568;2022-12-07T01:28:36;96825.34;;;2.57;100.00
31346;BME280;21711;49.708;18.568;2022-12-07T01:31:08;96820.59;;;2.66;100.00
31346;BME280;21711;49.708;18.568;2022-12-07T01:33:39;96822.28;;;2.60;100.00
31346;BME280;21711;49.708;18.568;2022-12-07T01:36:12;96822.03;;;2.74;100.00
31346;BME280;21711;49.708;18.568;2022-12-07T01:38:39;96830.72;;;2.80;100.00
31346;BME280;21711;49.708;18.568;2022-12-07T01:41:07;96823.84;;;2.73;100.00
31346;BME280;21711;49.708;18.568;2022-12-07T01:43:35;96819.91;;;2.59;100.00
31346;BME280;21711;49.708;18.568;2022-12-07T01:46:03;96817.25;;;2.71;100.00
31346;BME280;21711;49.708;18.568;2022-12-07T01:48:32;96813.88;;;2.58;100.00
31346;BME280;21711;49.708;18.568;2022-12-07T01:51:04;96820.25;;;2.50;100.00
31346;BME280;21711;49.708;18.568;2022-12-07T01:53:34;96826.38;;;2.56;100.00
31346;BME280;21711;49.708;18.568;2022-12-07T01:56:03;96817.84;;;2.61;100.00
31346;BME280;21711;49.708;18.568;2022-12-07T01:58:30;96816.28;;;2.60;100.00
31346;BME280;21711;49.708;18.568;2022-12-07T02:00:57;96813.97;;;2.63;100.00
31346;BME280;21711;49.708;18.568;2022-12-07T02:03:32;96809.41;;;2.42;100.00
31346;BME280;21711;49.708;18.568;2022-12-07T02:06:01;96814.22;;;2.62;100.00
31346;BME280;21711;49.708;18.568;2022-12-07T02:08:29;96815.25;;;2.61;100.00
31346;BME280;21711;49.708;18.568;2022-12-07T02:10:56;96811.84;;;2.60;100.00
31346;BME280;21711;49.708;18.568;2022-12-07T02:13:26;96813.31;;;2.68;100.00
31346;BME280;21711;49.708;18.568;2022-12-07T02:32:16;96818.53;;;2.68;100.00
31346;BME280;21711;49.708;18.568;2022-12-07T02:37:58;96820.50;;;2.49;100.00
31346;BME280;21711;49.708;18.568;2022-12-07T02:40:33;96821.19;;;2.44;100.00
31346;BME280;21711;49.708;18.568;2022-12-07T02:43:07;96813.66;;;2.60;100.00
31346;BME280;21711;49.708;18.568;2022-12-07T02:45:38;96808.66;;;2.58;100.00
31346;BME280;21711;49.708;18.568;2022-12-07T02:48:06;96809.09;;;2.67;100.00
31346;BME280;21711;49.708;18.568;2022-12-07T02:50:33;96809.16;;;2.55;100.00
31346;BME280;21711;49.708;18.568;2022-12-07T02:53:01;96811.75;;;2.55;100.00
31346;BME280;21711;49.708;18.568;2022-12-07T02:55:35;96801.72;;;2.64;100.00
31346;BME280;21711;49.708;18.568;2022-12-07T03:00:49;96808.22;;;2.61;100.00
31346;BME280;21711;49.708;18.568;2022-12-07T03:03:19;96805.97;;;2.53;100.00
31346;BME280;21711;49.708;18.568;2022-12-07T03:06:10;96806.97;;;2.52;100.00
31346;BME280;21711;49.708;18.568;2022-12-07T03:08:53;96804.19;;;2.42;100.00
31346;BME280;21711;49.708;18.568;2022-12-07T03:11:35;96798.59;;;2.50;100.00
31346;BME280;21711;49.708;18.568;2022-12-07T03:14:24;96798.47;;;2.57;100.00
31346;BME280;21711;49.708;18.568;2022-12-07T03:17:14;96800.88;;;2.46;100.00
31346;BME280;21711;49.708;18.568;2022-12-07T03:19:43;96799.06;;;2.47;100.00
31346;BME280;21711;49.708;18.568;2022-12-07T03:22:12;96806.44;;;2.50;100.00
31346;BME280;21711;49.708;18.568;2022-12-07T03:24:47;96793.34;;;2.62;100.00
31346;BME280;21711;49.708;18.568;2022-12-07T03:27:20;96796.88;;;2.56;100.00
31346;BME280;21711;49.708;18.568;2022-12-07T03:30:02;96810.06;;;2.49;100.00
31346;BME280;21711;49.708;18.568;2022-12-07T03:32:38;96797.91;;;2.55;100.00
31346;BME280;21711;49.708;18.568;2022-12-07T03:38:02;96799.47;;;2.56;100.00
31346;BME280;21711;49.708;18.568;2022-12-07T03:40:46;96799.03;;;2.59;100.00
31346;BME280;21711;49.708;18.568;2022-12-07T03:43:17;96797.56;;;2.51;100.00
31346;BME280;21711;49.708;18.568;2022-12-07T03:45:53;96795.94;;;2.33;100.00
31346;BME280;21711;49.708;18.568;2022-12-07T03:48:40;96799.91;;;2.35;100.00
31346;BME280;21711;49.708;18.568;2022-12-07T03:51:16;96804.38;;;2.52;100.00
31346;BME280;21711;49.708;18.568;2022-12-07T03:53:51;96798.22;;;2.58;100.00
31346;BME280;21711;49.708;18.568;2022-12-07T03:56:21;96796.00;;;2.50;100.00
31346;BME280;21711;49.708;18.568;2022-12-07T03:58:49;96790.97;;;2.60;100.00
31346;BME280;21711;49.708;18.568;2022-12-07T04:01:17;96790.66;;;2.57;100.00
31346;BME280;21711;49.708;18.568;2022-12-07T04:03:45;96792.25;;;2.46;100.00
31346;BME280;21711;49.708;18.568;2022-12-07T04:06:12;96796.00;;;2.50;100.00
31346;BME280;21711;49.708;18.568;2022-12-07T04:08:39;96787.28;;;2.32;100.00
31346;BME280;21711;49.708;18.568;2022-12-07T04:11:06;96791.94;;;2.30;100.00
31346;BME280;21711;49.708;18.568;2022-12-07T04:13:34;96794.78;;;2.29;100.00
31346;BME280;21711;49.708;18.568;2022-12-07T04:16:21;96794.19;;;2.39;100.00
31346;BME280;21711;49.708;18.568;2022-12-07T04:18:48;96797.59;;;2.39;100.00
31346;BME280;21711;49.708;18.568;2022-12-07T04:21:15;96791.25;;;2.35;100.00
31346;BME280;21711;49.708;18.568;2022-12-07T04:23:42;96792.41;;;2.27;100.00
31346;BME280;21711;49.708;18.568;2022-12-07T04:26:09;96791.53;;;2.09;100.00
31346;BME280;21711;49.708;18.568;2022-12-07T04:28:37;96794.94;;;2.10;100.00
31346;BME280;21711;49.708;18.568;2022-12-07T04:31:04;96792.22;;;2.05;100.00
31346;BME280;21711;49.708;18.568;2022-12-07T04:33:31;96794.94;;;2.10;100.00
31346;BME280;21711;49.708;18.568;2022-12-07T04:35:58;96790.88;;;2.02;100.00
31346;BME280;21711;49.708;18.568;2022-12-07T04:38:26;96801.84;;;2.16;100.00
31346;BME280;21711;49.708;18.568;2022-12-07T04:40:53;96798.44;;;2.16;100.00
31346;BME280;21711;49.708;18.568;2022-12-07T04:43:20;96806.34;;;2.21;100.00
31346;BME280;21711;49.708;18.568;2022-12-07T04:45:47;96802.66;;;2.17;100.00
31346;BME280;21711;49.708;18.568;2022-12-07T04:48:15;96801.13;;;2.21;100.00
31346;BME280;21711;49.708;18.568;2022-12-07T04:50:42;96793.78;;;2.18;100.00
31346;BME280;21711;49.708;18.568;2022-12-07T04:53:12;96797.53;;;2.10;100.00
31346;BME280;21711;49.708;18.568;2022-12-07T04:55:39;96796.28;;;2.13;100.00
31346;BME280;21711;49.708;18.568;2022-12-07T04:58:06;96797.44;;;2.17;100.00
31346;BME280;21711;49.708;18.568;2022-12-07T05:00:34;96798.44;;;2.16;100.00
31346;BME280;21711;49.708;18.568;2022-12-07T05:03:01;96801.13;;;2.21;100.00
31346;BME280;21711;49.708;18.568;2022-12-07T05:05:28;96798.31;;;2.22;100.00
31346;BME280;21711;49.708;18.568;2022-12-07T05:07:55;96800.59;;;2.19;100.00
31346;BME280;21711;49.708;18.568;2022-12-07T05:10:23;96802.84;;;2.27;100.00
31346;BME280;21711;49.708;18.568;2022-12-07T05:12:50;96802.94;;;2.32;100.00
31346;BME280;21711;49.708;18.568;2022-12-07T05:15:17;96804.31;;;2.23;100.00
31346;BME280;21711;49.708;18.568;2022-12-07T05:17:44;96811.25;;;2.17;100.00
31346;BME280;21711;49.708;18.568;2022-12-07T05:20:12;96803.31;;;2.24;100.00
31346;BME280;21711;49.708;18.568;2022-12-07T05:22:39;96805.91;;;2.24;100.00
31346;BME280;21711;49.708;18.568;2022-12-07T05:25:06;96803.97;;;2.31;100.00
31346;BME280;21711;49.708;18.568;2022-12-07T05:27:33;96798.88;;;2.36;100.00
31346;BME280;21711;49.708;18.568;2022-12-07T05:30:01;96801.03;;;2.28;100.00
31346;BME280;21711;49.708;18.568;2022-12-07T05:32:28;96812.28;;;2.16;100.00
31346;BME280;21711;49.708;18.568;2022-12-07T05:34:55;96803.09;;;2.14;100.00
31346;BME280;21711;49.708;18.568;2022-12-07T05:37:22;96810.09;;;2.25;100.00
31346;BME280;21711;49.708;18.568;2022-12-07T05:39:50;96804.13;;;2.13;100.00
31346;BME280;21711;49.708;18.568;2022-12-07T05:42:17;96806.59;;;2.19;100.00
31346;BME280;21711;49.708;18.568;2022-12-07T05:44:45;96806.94;;;2.23;100.00
31346;BME280;21711;49.708;18.568;2022-12-07T05:47:13;96808.50;;;2.24;100.00
31346;BME280;21711;49.708;18.568;2022-12-07T05:49:41;96806.94;;;2.23;100.00
31346;BME280;21711;49.708;18.568;2022-12-07T05:52:08;96807.88;;;2.17;100.00
31346;BME280;21711;49.708;18.568;2022-12-07T05:54:35;96808.63;;;2.17;100.00
31346;BME280;21711;49.708;18.568;2022-12-07T05:57:02;96805.94;;;2.12;100.00
31346;BME280;21711;49.708;18.568;2022-12-07T05:59:30;96813.75;;;2.24;100.00
31346;BME280;21711;49.708;18.568;2022-12-07T06:02:10;96808.50;;;2.24;100.00
31346;BME280;21711;49.708;18.568;2022-12-07T06:04:46;96815.09;;;2.27;100.00
31346;BME280;21711;49.708;18.568;2022-12-07T06:07:15;96827.38;;;2.26;100.00
31346;BME280;21711;49.708;18.568;2022-12-07T06:09:43;96819.56;;;2.14;100.00
31346;BME280;21711;49.708;18.568;2022-12-07T06:12:11;96817.69;;;2.27;100.00
31346;BME280;21711;49.708;18.568;2022-12-07T06:14:57;96816.25;;;2.19;100.00
31346;BME280;21711;49.708;18.568;2022-12-07T06:17:24;96820.91;;;2.05;100.00
31346;BME280;21711;49.708;18.568;2022-12-07T06:19:51;96828.38;;;2.13;100.00
31346;BME280;21711;49.708;18.568;2022-12-07T06:22:19;96825.53;;;2.27;100.00
31346;BME280;21711;49.708;18.568;2022-12-07T06:24:46;96829.72;;;2.16;100.00
31346;BME280;21711;49.708;18.568;2022-12-07T06:27:13;96830.31;;;2.18;100.00
31346;BME280;21711;49.708;18.568;2022-12-07T06:29:40;96833.94;;;2.29;100.00
31346;BME280;21711;49.708;18.568;2022-12-07T06:32:07;96830.84;;;2.32;100.00
31346;BME280;21711;49.708;18.568;2022-12-07T06:34:35;96829.28;;;2.07;100.00
31346;BME280;21711;49.708;18.568;2022-12-07T06:37:02;96832.00;;;2.24;100.00
31346;BME280;21711;49.708;18.568;2022-12-07T06:39:30;96835.31;;;2.19;100.00
31346;BME280;21711;49.708;18.568;2022-12-07T06:41:58;96838.56;;;2.27;100.00
31346;BME280;21711;49.708;18.568;2022-12-07T06:44:25;96838.25;;;1.87;100.00
31346;BME280;21711;49.708;18.568;2022-12-07T06:46:52;96844.41;;;2.05;100.00
31346;BME280;21711;49.708;18.568;2022-12-07T06:49:38;96844.28;;;2.12;100.00
31346;BME280;21711;49.708;18.568;2022-12-07T06:52:05;96847.88;;;1.99;100.00
31346;BME280;21711;49.708;18.568;2022-12-07T06:54:32;96853.69;;;1.89;100.00
31346;BME280;21711;49.708;18.568;2022-12-07T06:57:00;96850.97;;;1.83;100.00
31346;BME280;21711;49.708;18.568;2022-12-07T06:59:27;96863.22;;;1.95;100.00
31346;BME280;21711;49.708;18.568;2022-12-07T07:01:54;96861.72;;;1.87;100.00
31346;BME280;21711;49.708;18.568;2022-12-07T07:04:21;96867.16;;;1.86;100.00
31346;BME280;21711;49.708;18.568;2022-12-07T07:06:48;96861.72;;;1.75;100.00
31346;BME280;21711;49.708;18.568;2022-12-07T07:09:21;96856.84;;;1.91;100.00
31346;BME280;21711;49.708;18.568;2022-12-07T07:11:48;96858.69;;;1.78;100.00
31346;BME280;21711;49.708;18.568;2022-12-07T07:14:15;96858.09;;;1.76;100.00
31346;BME280;21711;49.708;18.568;2022-12-07T07:16:45;96863.41;;;1.81;100.00
31346;BME280;21711;49.708;18.568;2022-12-07T07:19:12;96855.38;;;1.83;100.00
31346;BME280;21711;49.708;18.568;2022-12-07T07:21:40;96858.78;;;1.83;100.00
31346;BME280;21711;49.708;18.568;2022-12-07T07:24:07;96859.13;;;1.75;100.00
31346;BME280;21711;49.708;18.568;2022-12-07T07:26:34;96864.09;;;1.77;100.00
31346;BME280;21711;49.708;18.568;2022-12-07T07:29:01;96861.03;;;1.80;100.00
31346;BME280;21711;49.708;18.568;2022-12-07T07:31:29;96860.94;;;1.87;100.00
31346;BME280;21711;49.708;18.568;2022-12-07T07:33:56;96862.06;;;1.79;100.00
31346;BME280;21711;49.708;18.568;2022-12-07T07:36:23;96859.66;;;1.65;100.00
31346;BME280;21711;49.708;18.568;2022-12-07T07:38:50;96860.25;;;1.67;100.00
31346;BME280;21711;49.708;18.568;2022-12-07T07:41:17;96864.13;;;1.89;100.00
31346;BME280;21711;49.708;18.568;2022-12-07T07:43:44;96870.59;;;1.86;100.00
31346;BME280;21711;49.708;18.568;2022-12-07T07:46:12;96865.00;;;1.82;100.00
31346;BME280;21711;49.708;18.568;2022-12-07T07:48:39;96863.31;;;1.88;100.00
31346;BME280;21711;49.708;18.568;2022-12-07T07:51:07;96865.69;;;1.90;100.00
31346;BME280;21711;49.708;18.568;2022-12-07T07:53:34;96867.97;;;1.98;100.00
31346;BME280;21711;49.708;18.568;2022-12-07T07:56:01;96868.31;;;2.02;100.00
31346;BME280;21711;49.708;18.568;2022-12-07T07:58:29;96869.69;;;2.04;100.00
31346;BME280;21711;49.708;18.568;2022-12-07T08:00:56;96872.50;;;2.15;100.00
31346;BME280;21711;49.708;18.568;2022-12-07T08:03:23;96872.97;;;2.23;100.00
31346;BME280;21711;49.708;18.568;2022-12-07T08:05:50;96870.69;;;2.03;100.00
31346;BME280;21711;49.708;18.568;2022-12-07T08:08:18;96870.59;;;2.10;100.00
31346;BME280;21711;49.708;18.568;2022-12-07T08:10:45;96872.06;;;2.18;100.00
31346;BME280;21711;49.708;18.568;2022-12-07T08:13:13;96874.91;;;2.16;100.00
31346;BME280;21711;49.708;18.568;2022-12-07T08:15:46;96867.63;;;2.06;100.00
31346;BME280;21711;49.708;18.568;2022-12-07T08:18:15;96874.66;;;2.18;100.00
31346;BME280;21711;49.708;18.568;2022-12-07T08:20:42;96875.69;;;2.05;100.00
31346;BME280;21711;49.708;18.568;2022-12-07T08:23:10;96875.44;;;2.30;100.00
31346;BME280;21711;49.708;18.568;2022-12-07T08:25:37;96884.88;;;2.31;100.00
31346;BME280;21711;49.708;18.568;2022-12-07T08:28:29;96886.25;;;2.34;100.00
31346;BME280;21711;49.708;18.568;2022-12-07T08:31:00;96888.38;;;2.37;100.00
31346;BME280;21711;49.708;18.568;2022-12-07T08:33:28;96883.84;;;2.32;100.00
31346;BME280;21711;49.708;18.568;2022-12-07T08:36:04;96894.28;;;2.32;100.00
31346;BME280;21711;49.708;18.568;2022-12-07T08:38:31;96879.19;;;2.34;100.00
31346;BME280;21711;49.708;18.568;2022-12-07T08:40:59;96897.22;;;2.36;100.00
31346;BME280;21711;49.708;18.568;2022-12-07T08:43:26;96883.53;;;2.17;100.00
31346;BME280;21711;49.708;18.568;2022-12-07T08:48:34;96895.53;;;2.42;100.00
31346;BME280;21711;49.708;18.568;2022-12-07T08:51:03;96888.25;;;2.44;100.00
31346;BME280;21711;49.708;18.568;2022-12-07T08:53:30;96901.19;;;2.39;100.00
31346;BME280;21711;49.708;18.568;2022-12-07T08:55:58;96897.44;;;2.46;100.00
31346;BME280;21711;49.708;18.568;2022-12-07T08:58:25;96891.78;;;2.38;100.00
31346;BME280;21711;49.708;18.568;2022-12-07T09:00:53;96888.84;;;2.46;100.00
31346;BME280;21711;49.708;18.568;2022-12-07T09:03:21;96887.00;;;2.46;100.00
31346;BME280;21711;49.708;18.568;2022-12-07T09:05:48;96883.38;;;2.59;100.00
31346;BME280;21711;49.708;18.568;2022-12-07T09:08:16;96883.25;;;2.66;100.00
31346;BME280;21711;49.708;18.568;2022-12-07T09:10:43;96886.75;;;2.60;100.00
31346;BME280;21711;49.708;18.568;2022-12-07T09:13:10;96891.31;;;2.65;100.00
31346;BME280;21711;49.708;18.568;2022-12-07T09:15:38;96889.16;;;2.61;100.00
31346;BME280;21711;49.708;18.568;2022-12-07T09:18:05;96880.03;;;2.76;100.00
31346;BME280;21711;49.708;18.568;2022-12-07T09:20:32;96889.06;;;2.97;100.00
31346;BME280;21711;49.708;18.568;2022-12-07T09:23:01;96892.25;;;2.99;100.00
31346;BME280;21711;49.708;18.568;2022-12-07T09:25:28;96892.47;;;2.98;100.00
31346;BME280;21711;49.708;18.568;2022-12-07T09:27:57;96887.16;;;2.93;100.00
31346;BME280;21711;49.708;18.568;2022-12-07T09:30:25;96880.25;;;3.15;100.00
31346;BME280;21711;49.708;18.568;2022-12-07T09:32:54;96875.09;;;2.92;100.00
31346;BME280;21711;49.708;18.568;2022-12-07T09:35:22;96889.06;;;2.97;100.00
31346;BME280;21711;49.708;18.568;2022-12-07T09:37:50;96886.59;;;2.79;100.00
31346;BME280;21711;49.708;18.568;2022-12-07T09:40:18;96888.22;;;3.09;100.00
31346;BME280;21711;49.708;18.568;2022-12-07T09:42:53;96882.38;;;2.89;100.00
31346;BME280;21711;49.708;18.568;2022-12-07T09:45:35;96884.06;;;2.96;100.00
31346;BME280;21711;49.708;18.568;2022-12-07T09:48:03;96878.94;;;3.01;100.00
31346;BME280;21711;49.708;18.568;2022-12-07T09:50:31;96875.09;;;2.92;100.00
31346;BME280;21711;49.708;18.568;2022-12-07T09:53:24;96875.44;;;2.95;100.00
31346;BME280;21711;49.708;18.568;2022-12-07T09:55:52;96873.19;;;3.16;100.00
31346;BME280;21711;49.708;18.568;2022-12-07T09:58:24;96865.53;;;3.26;100.00
31346;BME280;21711;49.708;18.568;2022-12-07T10:01:11;96863.59;;;3.34;100.00
31346;BME280;21711;49.708;18.568;2022-12-07T10:03:42;96861.88;;;3.27;100.00
31346;BME280;21711;49.708;18.568;2022-12-07T10:06:12;96855.75;;;3.51;100.00
31346;BME280;21711;49.708;18.568;2022-12-07T10:08:40;96851.72;;;3.43;100.00
31346;BME280;21711;49.708;18.568;2022-12-07T10:11:08;96852.91;;;3.52;100.00
31346;BME280;21711;49.708;18.568;2022-12-07T10:13:39;96841.13;;;3.67;100.00
31346;BME280;21711;49.708;18.568;2022-12-07T10:18:52;96825.72;;;4.27;100.00
31346;BME280;21711;49.708;18.568;2022-12-07T10:21:24;96829.63;;;4.25;100.00
31346;BME280;21711;49.708;18.568;2022-12-07T10:29:28;96821.47;;;4.43;100.00
31346;BME280;21711;49.708;18.568;2022-12-07T10:31:58;96817.25;;;4.20;100.00
31346;BME280;21711;49.708;18.568;2022-12-07T10:34:37;96817.75;;;4.17;100.00
31346;BME280;21711;49.708;18.568;2022-12-07T10:39:47;96808.63;;;3.63;100.00
31346;BME280;21711;49.708;18.568;2022-12-07T10:42:25;96806.97;;;3.74;100.00
31346;BME280;21711;49.708;18.568;2022-12-07T10:50:41;96806.31;;;4.68;100.00
31346;BME280;21711;49.708;18.568;2022-12-07T10:56:01;96795.28;;;5.21;100.00
31346;BME280;21711;49.708;18.568;2022-12-07T11:10:30;96795.47;;;3.75;100.00
31346;BME280;21711;49.708;18.568;2022-12-07T11:13:23;96792.47;;;3.66;100.00
31346;BME280;21711;49.708;18.568;2022-12-07T11:16:19;96785.53;;;3.77;100.00
31346;BME280;21711;49.708;18.568;2022-12-07T11:19:16;96797.34;;;3.79;100.00
31346;BME280;21711;49.708;18.568;2022-12-07T11:21:58;96804.06;;;3.75;100.00
31346;BME280;21711;49.708;18.568;2022-12-07T11:38:22;96777.00;;;3.64;100.00
31346;BME280;21711;49.708;18.568;2022-12-07T11:40:59;96767.28;;;3.82;100.00
31346;BME280;21711;49.708;18.568;2022-12-07T11:46:18;96770.81;;;4.10;100.00
31346;BME280;21711;49.708;18.568;2022-12-07T11:51:25;96769.00;;;4.33;100.00
31346;BME280;21711;49.708;18.568;2022-12-07T11:54:17;96767.03;;;4.01;100.00
31346;BME280;21711;49.708;18.568;2022-12-07T11:56:48;96757.34;;;4.01;100.00
31346;BME280;21711;49.708;18.568;2022-12-07T11:59:28;96762.28;;;4.42;100.00
31346;BME280;21711;49.708;18.568;2022-12-07T12:02:03;96758.38;;;4.45;100.00
31346;BME280;21711;49.708;18.568;2022-12-07T12:07:24;96761.69;;;4.35;100.00
31346;BME280;21711;49.708;18.568;2022-12-07T12:10:22;96757.00;;;4.15;100.00
31346;BME280;21711;49.708;18.568;2022-12-07T12:21:17;96770.78;;;5.37;100.00
31346;BME280;21711;49.708;18.568;2022-12-07T12:24:10;96769.19;;;5.69;100.00
31346;BME280;21711;49.708;18.568;2022-12-07T12:26:47;96768.06;;;5.60;100.00
31346;BME280;21711;49.708;18.568;2022-12-07T12:29:27;96769.59;;;4.90;100.00
31346;BME280;21711;49.708;18.568;2022-12-07T12:34:41;96767.59;;;4.25;100.00
31346;BME280;21711;49.708;18.568;2022-12-07T12:42:52;96765.16;;;4.18;100.00
31346;BME280;21711;49.708;18.568;2022-12-07T12:45:23;96760.78;;;4.02;100.00
31346;BME280;21711;49.708;18.568;2022-12-07T12:48:01;96769.09;;;3.99;100.00
31346;BME280;21711;49.708;18.568;2022-12-07T12:50:31;96762.50;;;3.74;100.00
31346;BME280;21711;49.708;18.568;2022-12-07T12:53:02;96761.56;;;3.63;100.00
31346;BME280;21711;49.708;18.568;2022-12-07T13:00:46;96762.06;;;3.82;100.00
31346;BME280;21711;49.708;18.568;2022-12-07T13:03:40;96763.63;;;4.00;100.00
31346;BME280;21711;49.708;18.568;2022-12-07T13:08:52;96762.34;;;4.03;100.00
31346;BME280;21711;49.708;18.568;2022-12-07T13:11:33;96762.78;;;3.77;100.00
31346;BME280;21711;49.708;18.568;2022-12-07T13:20:04;96757.00;;;3.75;100.00
31346;BME280;21711;49.708;18.568;2022-12-07T13:22:39;96755.50;;;3.79;100.00
31346;BME280;21711;49.708;18.568;2022-12-07T13:27:40;96752.88;;;3.79;100.00
31346;BME280;21711;49.708;18.568;2022-12-07T13:30:19;96762.69;;;3.89;100.00
31346;BME280;21711;49.708;18.568;2022-12-07T13:32:55;96760.34;;;3.71;100.00
31346;BME280;21711;49.708;18.568;2022-12-07T13:35:36;96771.84;;;3.70;100.00
31346;BME280;21711;49.708;18.568;2022-12-07T13:38:33;96775.03;;;3.54;100.00
31346;BME280;21711;49.708;18.568;2022-12-07T13:46:22;96777.16;;;3.23;100.00
31346;BME280;21711;49.708;18.568;2022-12-07T13:48:51;96787.69;;;3.11;100.00
31346;BME280;21711;49.708;18.568;2022-12-07T13:51:34;96780.00;;;3.05;100.00
31346;BME280;21711;49.708;18.568;2022-12-07T13:54:09;96782.25;;;3.01;100.00
31346;BME280;21711;49.708;18.568;2022-12-07T13:56:37;96782.13;;;3.08;100.00
31346;BME280;21711;49.708;18.568;2022-12-07T13:59:45;96781.56;;;3.06;100.00
31346;BME280;21711;49.708;18.568;2022-12-07T14:04:50;96796.13;;;3.01;100.00
31346;BME280;21711;49.708;18.568;2022-12-07T14:07:26;96792.97;;;2.99;100.00
31346;BME280;21711;49.708;18.568;2022-12-07T14:12:23;96794.22;;;2.97;100.00
31346;BME280;21711;49.708;18.568;2022-12-07T14:14:50;96798.66;;;2.96;100.00
31346;BME280;21711;49.708;18.568;2022-12-07T14:17:20;96805.47;;;2.97;100.00
31346;BME280;21711;49.708;18.568;2022-12-07T14:19:55;96799.38;;;3.09;100.00
31346;BME280;21711;49.708;18.568;2022-12-07T14:25:16;96805.69;;;2.96;100.00
31346;BME280;21711;49.708;18.568;2022-12-07T14:30:17;96795.00;;;2.97;100.00
31346;BME280;21711;49.708;18.568;2022-12-07T14:32:45;96785.28;;;2.93;100.00
31346;BME280;21711;49.708;18.568;2022-12-07T14:35:17;96794.59;;;2.88;100.00
31346;BME280;21711;49.708;18.568;2022-12-07T14:37:46;96787.69;;;2.82;100.00
31346;BME280;21711;49.708;18.568;2022-12-07T14:40:33;96792.03;;;2.76;100.00
31346;BME280;21711;49.708;18.568;2022-12-07T14:43:02;96789.66;;;2.75;100.00
31346;BME280;21711;49.708;18.568;2022-12-07T14:45:31;96785.94;;;2.71;100.00
31346;BME280;21711;49.708;18.568;2022-12-07T14:47:58;96777.19;;;2.65;100.00
31346;BME280;21711;49.708;18.568;2022-12-07T14:50:52;96782.06;;;2.73;100.00
31346;BME280;21711;49.708;18.568;2022-12-07T14:53:48;96786.09;;;2.81;100.00
31346;BME280;21711;49.708;18.568;2022-12-07T14:56:24;96775.41;;;2.66;100.00
31346;BME280;21711;49.708;18.568;2022-12-07T14:58:51;96784.63;;;2.56;100.00
31346;BME280;21711;49.708;18.568;2022-12-07T15:01:18;96784.47;;;2.63;100.00
31346;BME280;21711;49.708;18.568;2022-12-07T15:03:46;96789.13;;;2.61;100.00
31346;BME280;21711;49.708;18.568;2022-12-07T15:06:14;96801.97;;;2.62;100.00
31346;BME280;21711;49.708;18.568;2022-12-07T15:08:43;96802.69;;;2.46;100.00
31346;BME280;21711;49.708;18.568;2022-12-07T15:11:17;96808.38;;;2.43;100.00
31346;BME280;21711;49.708;18.568;2022-12-07T15:13:44;96815.84;;;2.51;100.00
31346;BME280;21711;49.708;18.568;2022-12-07T15:16:30;96819.91;;;2.59;100.00
31346;BME280;21711;49.708;18.568;2022-12-07T15:19:20;96812.44;;;2.50;100.00
31346;BME280;21711;49.708;18.568;2022-12-07T15:21:55;96812.34;;;2.45;100.00